Original METAR for KDHN:
072111Z 14020G30KT 9SM TS BKN008 BKN047 25/23 A3018 RMK AO2 PK WND 14030/2111 LTG DSNT ALQDS PRESRR T02500228

Wind: 140° at 20 knots (gusting to 30 knots)
Visibility: 9 statute miles
Sky conditions:
Temperature: 77°F
Dew Point: 73.4°F
Altimeter: 30.18

Remarks:
-- METAR generated by an automated station with a precipitation discriminator.
-- Lightning
-- Peak wind: 30 knots from 140° at 2111Z.
-- Precise hourly temperature and dew point: 25.0°C / 22.8°C

NOTE:
This METAR was retrieved from metars.com at:
http://www.metars.com/stations/KDHN.html


Cessnas2Oshkosh, C2O, CessnaBaseCamp and The Pirep | Testimonials | Donations | FAQ | Privacy | Contact Us
are trademarks of Cessnas 2 Oshkosh, Inc. - Dothan, AL Copyright © 2008 - 2022 Cessnas 2 Oshkosh, Inc. All rights reserved.